Casville, North Carolina
Current Conditions -  °F | °C
As of 7:53 PM on Monday 24 Nov 2014 (Local Time) from KDAN Reporting Station
Clear Clear  
Wind Chill: 62°   Ceiling: Unl
Heat Index: 62°   Visibility: 10mi
Dew Point: 56°   Wind: 7mph
Humidity: 80%   Direction: 210°SSW
Pressure: 29.83"   Gusts: NA
Location:  36.4355°N, 79.5464°W
Report Text: KDAN 250053Z AUTO 21006KT 10SM CLR 17/13 A2983 RMK AO2 PRESRR SLP094 T01670133
Loading
Personal Weather Stations






























Interactive Weather Map New forecast layout! Learn more

10-Day Weather Forecast

Advertisements
Track Severe Weather on mobile